Tuckahoe, New Jersey
Current Conditions -  °F | °C
As of 12:54 AM on Wednesday 22 Oct 2014 (Local Time) from KACY Reporting Station
Scattered Clouds Scattered Clouds  
Wind Chill: 54°   Ceiling: Unl
Heat Index: 54°   Visibility: 10mi
Dew Point: 53°   Wind: 3mph
Humidity: 97%   Direction: 360°N
Pressure: 29.84"   Gusts: NA
Location:  39.29°N, 74.75°W
Report Text: KACY 220454Z 36003KT 10SM SCT110 12/12 A2984 RMK AO2 SLP105 T01220117 402110083
Loading
Personal Weather Stations






























Interactive Weather Map
Tropical Storm Tracking
New forecast layout! Learn more

10-Day Weather Forecast

Advertisements
Track Severe Weather on mobile